Litchville, North Dakota
Current Conditions -  °F | °C
As of 7:35 PM on Friday 24 Oct 2014 (Local Time) from KBAC Reporting Station
Few Clouds Few Clouds  
Wind Chill: 55°   Ceiling: Unl
Heat Index: 55°   Visibility: 10mi
Dew Point: 34°   Wind: 9mph
Humidity: 44%   Direction: 260°W
Pressure: 29.9"   Gusts: NA
Location:  46.65°N, 98.19°W
Report Text: KBAC 250035Z AUTO 26008KT 10SM FEW120 13/01 A2990 RMK AO2
Loading
Personal Weather Stations






























Interactive Weather Map
Tropical Storm Tracking
New forecast layout! Learn more

10-Day Weather Forecast

Advertisements
Track Severe Weather on mobile